Time;durP1;ratioP1;P1;durP2;ratioP2;P2;SDS_P1;SDS_P2;PMS_P1;PMS_P2;Temp;Humidity;BMP_temperature;BMP_pressure;BME280_temperature;BME280_humidity;BME280_pressure;Samples;Min_cycle;Max_cycle;Signal;HPM_P1;HPM_P2
2022/01/18 00:01:27;;;;;;;1.88;0.82;;;18.40;51.20;;;;;;4888612;29;20155;-47
2022/01/18 00:03:55;;;;;;;5.15;1.38;;;18.50;51.30;;;;;;4888787;29;20052;-45
2022/01/18 00:06:22;;;;;;;5.50;1.50;;;18.40;51.40;;;;;;4948994;28;20079;-46
2022/01/18 00:08:49;;;;;;;5.55;0.98;;;18.50;51.50;;;;;;4949566;28;20884;-44
2022/01/18 00:11:21;;;;;;;2.67;0.70;;;18.50;51.50;;;;;;4949189;28;20102;-45
2022/01/18 00:13:56;;;;;;;6.63;1.35;;;18.50;51.40;;;;;;4947359;28;20035;-48
2022/01/18 00:16:30;;;;;;;4.28;0.88;;;18.50;51.30;;;;;;4943849;28;20122;-45
2022/01/18 00:19:01;;;;;;;4.97;1.23;;;18.60;51.30;;;;;;4949873;28;20043;-45
2022/01/18 00:21:50;;;;;;;2.60;0.68;;;18.60;51.30;;;;;;4951091;28;20876;-46
2022/01/18 00:24:17;;;;;;;1.70;1.15;;;18.60;51.20;;;;;;4950714;28;20047;-46
2022/01/18 00:26:46;;;;;;;2.47;1.33;;;18.50;51.00;;;;;;4948608;28;20385;-46
2022/01/18 00:29:16;;;;;;;1.20;0.98;;;18.60;51.00;;;;;;4947875;28;20051;-45
2022/01/18 00:31:58;;;;;;;2.08;1.10;;;18.60;50.90;;;;;;4948605;28;20046;-48
2022/01/18 00:34:28;;;;;;;1.63;1.25;;;18.60;50.80;;;;;;4948928;28;20043;-47
2022/01/18 00:37:22;;;;;;;1.75;1.05;;;18.60;50.70;;;;;;4949196;28;20054;-45
2022/01/18 00:39:50;;;;;;;2.63;0.95;;;18.60;50.60;;;;;;4948485;28;20055;-45
2022/01/18 00:42:18;;;;;;;2.25;0.57;;;18.60;50.60;;;;;;4949572;28;20042;-44
2022/01/18 00:44:45;;;;;;;2.60;0.90;;;18.60;50.40;;;;;;4949192;28;20046;-47
2022/01/18 00:47:12;;;;;;;3.85;1.08;;;18.60;50.40;;;;;;4948972;28;20042;-48
2022/01/18 00:49:44;;;;;;;1.85;0.88;;;18.60;50.40;;;;;;4947989;28;20040;-48
2022/01/18 00:52:11;;;;;;;3.00;1.20;;;18.60;50.30;;;;;;4948929;28;20039;-47
2022/01/18 00:54:43;;;;;;;2.08;0.50;;;18.60;50.30;;;;;;4950657;29;20047;-45
2022/01/18 00:57:10;;;;;;;8.98;1.45;;;18.60;50.80;;;;;;4948976;28;20550;-50
2022/01/18 00:59:41;;;;;;;3.58;0.77;;;18.60;50.10;;;;;;4948672;28;20043;-48
2022/01/18 01:02:08;;;;;;;1.63;0.70;;;18.60;50.10;;;;;;4948582;28;20047;-47
2022/01/18 01:04:41;;;;;;;2.20;0.63;;;18.60;50.00;;;;;;4947124;28;20058;-47
2022/01/18 01:07:08;;;;;;;3.08;1.45;;;18.60;49.90;;;;;;4948357;28;20102;-44
2022/01/18 01:09:37;;;;;;;3.90;0.88;;;18.60;50.00;;;;;;4950432;29;20058;-46
2022/01/18 01:12:06;;;;;;;2.40;0.70;;;18.60;50.00;;;;;;4948599;28;20073;-49
2022/01/18 01:14:34;;;;;;;2.00;0.75;;;18.60;49.90;;;;;;4948329;28;20047;-47
2022/01/18 01:17:15;;;;;;;1.92;0.75;;;18.60;49.80;;;;;;4948138;28;20059;-47
2022/01/18 01:31:59;;;;;;;2.10;1.08;;;18.60;49.90;;;;;;4947359;28;20062;-50
2022/01/18 01:34:06;;;;;;;4.43;1.90;;;18.50;50.00;;;;;;4949671;28;20051;-48
2022/01/18 01:37:00;;;;;;;;;;;18.50;50.00;;;;;;4949348;29;20456;-45
2022/01/18 01:42:30;;;;;;;1.85;0.93;;;18.50;50.20;;;;;;4948687;28;20093;-46
2022/01/18 01:44:58;;;;;;;6.28;1.13;;;18.50;50.00;;;;;;4947077;28;20043;-46
2022/01/18 01:47:34;;;;;;;0.85;0.70;;;18.50;50.00;;;;;;4947663;28;20047;-48
2022/01/18 01:50:03;;;;;;;;;;;18.50;50.00;;;;;;4941906;28;20079;-45
2022/01/18 01:52:30;;;;;;;3.80;0.95;;;18.40;49.90;;;;;;4940611;29;19933;-45
2022/01/18 01:54:57;;;;;;;3.70;0.90;;;18.40;50.00;;;;;;4946204;28;20085;-46
2022/01/18 01:57:25;;;;;;;3.22;1.05;;;18.50;50.00;;;;;;4947421;29;20055;-44
2022/01/18 01:59:53;;;;;;;2.92;1.98;;;18.40;49.90;;;;;;4945662;28;20047;-44
2022/01/18 02:02:20;;;;;;;3.25;1.50;;;18.50;49.90;;;;;;4947014;28;20043;-47
2022/01/18 02:04:47;;;;;;;3.50;0.88;;;18.50;49.80;;;;;;4947734;28;20563;-45
2022/01/18 02:07:16;;;;;;;2.97;0.93;;;18.50;49.80;;;;;;4947049;28;20058;-47
2022/01/18 02:09:43;;;;;;;1.20;1.10;;;18.50;49.70;;;;;;4949544;29;20077;-47
2022/01/18 02:12:11;;;;;;;1.20;0.88;;;18.50;49.70;;;;;;4948066;28;20050;-47
2022/01/18 02:14:40;;;;;;;4.63;1.23;;;18.40;49.60;;;;;;4947521;28;20043;-49
2022/01/18 02:22:37;;;;;;;2.67;1.27;;;18.40;49.50;;;;;;4947399;28;20086;-45
2022/01/18 02:25:05;;;;;;;4.25;2.22;;;18.40;49.50;;;;;;4947528;28;20043;-50
2022/01/18 02:27:32;;;;;;;2.33;1.00;;;18.40;49.50;;;;;;4949224;29;20058;-45
2022/01/18 02:29:59;;;;;;;2.90;1.20;;;18.40;49.40;;;;;;4947477;28;20510;-45
2022/01/18 02:32:26;;;;;;;4.82;1.33;;;18.40;49.50;;;;;;4947073;28;20459;-49
2022/01/18 02:34:53;;;;;;;2.22;0.75;;;18.40;49.40;;;;;;4947280;28;20039;-45
2022/01/18 02:37:20;;;;;;;3.75;1.10;;;18.40;49.40;;;;;;4946751;28;20841;-44
2022/01/18 02:39:48;;;;;;;2.47;1.08;;;18.40;49.40;;;;;;4947665;28;20049;-46
2022/01/18 02:42:23;;;;;;;1.85;0.85;;;18.40;49.30;;;;;;4948246;28;20055;-48
2022/01/18 02:44:51;;;;;;;2.38;1.05;;;18.40;49.40;;;;;;4947209;28;20046;-46
2022/01/18 02:47:20;;;;;;;2.50;0.70;;;18.40;49.30;;;;;;4946822;28;20043;-48
2022/01/18 02:49:47;;;;;;;2.78;1.63;;;18.40;49.30;;;;;;4947302;28;20114;-48
2022/01/18 02:52:15;;;;;;;3.17;0.95;;;18.40;49.30;;;;;;4945885;28;20114;-47
2022/01/18 02:54:42;;;;;;;2.63;1.25;;;18.40;49.30;;;;;;4949338;29;20142;-47
2022/01/18 02:57:13;;;;;;;2.05;0.85;;;18.40;49.30;;;;;;4946970;28;20035;-48
2022/01/18 02:59:47;;;;;;;3.40;1.20;;;18.40;49.20;;;;;;4931859;29;20047;-52
2022/01/18 03:05:04;;;;;;;2.08;1.60;;;18.40;49.20;;;;;;4942801;28;20496;-48
2022/01/18 03:07:31;;;;;;;2.80;1.00;;;18.30;49.10;;;;;;4947111;28;20067;-45
2022/01/18 03:09:58;;;;;;;5.97;1.10;;;18.30;49.10;;;;;;4947458;28;20051;-47
2022/01/18 03:12:27;;;;;;;3.25;0.88;;;18.30;49.10;;;;;;4946901;29;20534;-45
2022/01/18 03:14:54;;;;;;;3.85;0.90;;;18.30;49.00;;;;;;4946534;28;20039;-49
2022/01/18 03:17:21;;;;;;;2.50;1.08;;;18.30;49.00;;;;;;4944865;28;20046;-45
2022/01/18 03:19:48;;;;;;;1.45;1.00;;;18.30;49.00;;;;;;4948831;28;20122;-45
2022/01/18 03:22:15;;;;;;;1.73;0.98;;;18.30;48.90;;;;;;4947131;28;20389;-49
2022/01/18 03:24:49;;;;;;;3.42;1.40;;;18.30;48.90;;;;;;4948832;29;20480;-46
2022/01/18 03:30:07;;;;;;;3.83;1.10;;;18.30;49.40;;;;;;4945719;28;20725;-47
2022/01/18 03:32:34;;;;;;;2.15;1.83;;;18.30;48.90;;;;;;4946711;28;20449;-43
2022/01/18 03:35:01;;;;;;;1.13;0.70;;;18.30;48.80;;;;;;4946686;28;20841;-45
2022/01/18 03:37:30;;;;;;;1.90;1.20;;;18.30;48.80;;;;;;4946737;28;20482;-44
2022/01/18 03:39:57;;;;;;;1.38;1.20;;;18.30;48.70;;;;;;4946980;28;20055;-44
2022/01/18 03:45:14;;;;;;;0.68;0.60;;;18.30;48.70;;;;;;4945062;28;20055;-48
2022/01/18 03:47:42;;;;;;;1.20;1.08;;;18.30;48.70;;;;;;4947364;28;20048;-46
2022/01/18 03:50:11;;;;;;;0.90;0.50;;;18.20;48.60;;;;;;4950041;28;20042;-46
2022/01/18 03:52:40;;;;;;;2.72;1.02;;;18.20;48.60;;;;;;4950108;28;20042;-44
2022/01/18 03:55:10;;;;;;;2.42;0.90;;;18.20;48.60;;;;;;4950050;28;20499;-44
2022/01/18 03:57:38;;;;;;;1.42;0.82;;;18.20;48.60;;;;;;4951575;29;20057;-47
2022/01/18 04:00:07;;;;;;;1.33;0.93;;;18.20;48.60;;;;;;4949648;28;20051;-47
2022/01/18 04:02:40;;;;;;;1.42;0.63;;;18.20;48.50;;;;;;4949782;28;20055;-44
2022/01/18 04:05:08;;;;;;;2.05;0.80;;;18.20;48.50;;;;;;4949638;28;20039;-46
2022/01/18 04:07:35;;;;;;;1.85;0.75;;;18.20;48.40;;;;;;4949650;28;20441;-44
2022/01/18 04:10:04;;;;;;;1.92;0.90;;;18.20;48.40;;;;;;4949780;28;20047;-47
2022/01/18 04:12:31;;;;;;;2.15;1.35;;;18.20;48.50;;;;;;4951018;29;20050;-50
2022/01/18 04:15:00;;;;;;;1.25;0.55;;;18.20;48.40;;;;;;4947036;28;20049;-45
2022/01/18 04:17:48;;;;;;;1.75;1.20;;;18.20;48.40;;;;;;4948779;28;20039;-45
2022/01/18 04:26:01;;;;;;;2.78;0.75;;;18.20;49.00;;;;;;4949121;28;20039;-45
2022/01/18 04:28:35;;;;;;;1.95;1.05;;;18.10;48.30;;;;;;4945876;28;20048;-45
2022/01/18 04:31:03;;;;;;;0.50;0.45;;;18.10;48.30;;;;;;4949003;28;20644;-47
2022/01/18 04:33:30;;;;;;;1.60;0.93;;;18.10;48.30;;;;;;4950134;29;20055;-45
2022/01/18 04:36:00;;;;;;;1.90;0.95;;;18.20;48.40;;;;;;4948639;28;20054;-44
2022/01/18 04:38:27;;;;;;;1.73;1.10;;;18.10;48.30;;;;;;4949120;28;20039;-45
2022/01/18 04:40:59;;;;;;;2.13;0.90;;;18.10;48.30;;;;;;4948763;28;20124;-45
2022/01/18 04:43:40;;;;;;;1.58;0.70;;;18.10;48.20;;;;;;4948597;28;20055;-45
2022/01/18 04:48:53;;;;;;;1.08;0.73;;;18.10;48.30;;;;;;4947115;28;20057;-49
2022/01/18 04:51:22;;;;;;;2.83;0.98;;;18.10;48.20;;;;;;4949391;28;20383;-49
2022/01/18 04:53:54;;;;;;;1.27;0.88;;;18.10;48.20;;;;;;4948939;28;20118;-47
2022/01/18 04:56:29;;;;;;;1.20;1.10;;;18.10;48.20;;;;;;4948068;28;20134;-46
2022/01/18 04:58:56;;;;;;;1.67;1.40;;;18.10;48.20;;;;;;4948316;28;20067;-51
2022/01/18 05:01:23;;;;;;;2.97;1.27;;;18.10;48.10;;;;;;4947372;28;20047;-44
2022/01/18 05:03:51;;;;;;;0.95;0.63;;;18.10;48.10;;;;;;4948600;28;20713;-44
2022/01/18 05:06:19;;;;;;;0.80;0.75;;;18.10;48.10;;;;;;4950351;28;20512;-47
2022/01/18 05:08:47;;;;;;;4.13;0.75;;;18.00;48.10;;;;;;4948571;28;20055;-47
2022/01/18 05:11:18;;;;;;;1.38;1.27;;;18.10;48.20;;;;;;4947957;28;20515;-44
2022/01/18 05:16:50;;;;;;;4.00;1.35;;;18.00;48.20;;;;;;4946329;28;20424;-47
2022/01/18 05:19:25;;;;;;;4.97;2.05;;;18.00;48.20;;;;;;4946447;28;20035;-47
2022/01/18 05:24:43;;;;;;;1.23;1.08;;;18.00;48.20;;;;;;4909146;29;20131;-45
2022/01/18 05:27:10;;;;;;;1.50;1.40;;;18.00;48.20;;;;;;4907672;29;20052;-50
2022/01/18 05:29:37;;;;;;;3.28;1.38;;;18.00;48.20;;;;;;4907282;29;20052;-50
2022/01/18 05:32:05;;;;;;;1.58;1.13;;;18.00;48.10;;;;;;4906752;29;20059;-47
2022/01/18 05:34:32;;;;;;;1.95;0.90;;;18.00;48.20;;;;;;4907444;29;20044;-44
2022/01/18 05:36:59;;;;;;;3.65;1.50;;;18.00;48.10;;;;;;4907628;29;20513;-47
2022/01/18 05:39:26;;;;;;;3.42;1.13;;;18.00;48.10;;;;;;4907010;29;20544;-47
2022/01/18 05:41:54;;;;;;;2.88;1.48;;;18.00;48.10;;;;;;4906751;29;20051;-48
2022/01/18 05:44:23;;;;;;;1.75;0.85;;;18.00;48.10;;;;;;4908965;29;20060;-44
2022/01/18 05:46:50;;;;;;;4.40;1.52;;;18.00;48.10;;;;;;4909646;29;20131;-45
2022/01/18 05:49:17;;;;;;;2.65;0.82;;;18.00;48.00;;;;;;4906830;29;20052;-47
2022/01/18 05:51:45;;;;;;;1.33;1.23;;;18.00;48.00;;;;;;4909110;29;20562;-45
2022/01/18 05:54:12;;;;;;;2.90;0.70;;;18.00;48.20;;;;;;4907414;29;20060;-45
2022/01/18 05:56:40;;;;;;;1.63;1.33;;;18.00;48.20;;;;;;4906523;29;20044;-46
2022/01/18 05:59:10;;;;;;;1.38;1.27;;;18.00;48.20;;;;;;4907888;29;20051;-45
2022/01/18 06:01:46;;;;;;;2.33;1.23;;;18.00;48.20;;;;;;4914125;29;20055;-46
2022/01/18 06:06:57;;;;;;;5.65;1.42;;;18.00;48.20;;;;;;4945975;28;20263;-45
2022/01/18 06:09:25;;;;;;;3.53;1.10;;;17.90;48.10;;;;;;4948082;28;20420;-49
2022/01/18 06:11:52;;;;;;;1.95;1.00;;;17.90;48.10;;;;;;4945346;28;20530;-45
2022/01/18 06:14:21;;;;;;;2.75;1.25;;;18.00;48.10;;;;;;4946245;28;20582;-47
2022/01/18 06:16:48;;;;;;;2.35;1.10;;;18.00;48.10;;;;;;4946493;28;20059;-47
2022/01/18 06:19:15;;;;;;;1.85;1.10;;;18.00;48.10;;;;;;4946307;28;20133;-47
2022/01/18 06:21:42;;;;;;;3.45;1.13;;;18.00;48.10;;;;;;4948534;29;20129;-48
2022/01/18 06:24:11;;;;;;;2.33;1.88;;;18.00;48.10;;;;;;4945954;28;20094;-44
2022/01/18 06:26:39;;;;;;;2.80;1.52;;;18.00;48.10;;;;;;4946201;28;20047;-47
2022/01/18 06:29:06;;;;;;;5.15;1.95;;;17.90;48.00;;;;;;4946440;28;20043;-50
2022/01/18 06:31:34;;;;;;;1.15;0.98;;;18.00;48.10;;;;;;4946663;28;20528;-45
2022/01/18 06:34:02;;;;;;;2.60;1.15;;;18.00;48.10;;;;;;4945979;28;20050;-47
2022/01/18 06:36:29;;;;;;;2.25;0.68;;;17.90;48.00;;;;;;4948232;28;20599;-48
2022/01/18 06:38:56;;;;;;;2.10;1.60;;;17.90;48.00;;;;;;4945953;28;20058;-46
2022/01/18 06:41:24;;;;;;;2.35;1.65;;;18.00;48.00;;;;;;4946425;28;20035;-45
2022/01/18 06:43:51;;;;;;;3.22;1.55;;;18.00;48.00;;;;;;4946648;28;20055;-50
2022/01/18 06:46:18;;;;;;;1.52;1.35;;;18.00;48.00;;;;;;4944178;28;20126;-45
2022/01/18 06:48:48;;;;;;;2.40;0.68;;;17.90;48.00;;;;;;4948274;28;20046;-44
2022/01/18 06:51:15;;;;;;;2.47;1.23;;;18.00;48.00;;;;;;4945074;28;20046;-47
2022/01/18 06:53:48;;;;;;;3.03;1.60;;;17.90;47.90;;;;;;4946540;28;20057;-47
2022/01/18 06:56:16;;;;;;;3.70;1.70;;;18.00;48.00;;;;;;4944760;28;20105;-46
2022/01/18 06:58:45;;;;;;;3.92;1.10;;;17.90;47.90;;;;;;4946524;28;20043;-48
2022/01/18 07:01:13;;;;;;;2.10;0.88;;;17.90;47.90;;;;;;4948182;28;20054;-48
2022/01/18 07:03:41;;;;;;;2.53;0.88;;;17.90;47.90;;;;;;4948418;29;20047;-48
2022/01/18 07:06:10;;;;;;;1.30;1.20;;;17.90;48.00;;;;;;4946055;28;20050;-46
2022/01/18 07:08:37;;;;;;;3.15;1.35;;;17.90;48.00;;;;;;4945477;28;20107;-48
2022/01/18 07:11:06;;;;;;;2.97;1.20;;;17.90;48.00;;;;;;4945117;28;20047;-49
2022/01/18 07:13:33;;;;;;;3.08;1.40;;;17.90;48.00;;;;;;4946176;28;20058;-48
2022/01/18 07:16:01;;;;;;;1.40;1.25;;;17.90;48.10;;;;;;4943742;28;20053;-46
2022/01/18 07:18:28;;;;;;;1.67;0.68;;;17.90;48.20;;;;;;4946076;29;20039;-44
2022/01/18 07:20:55;;;;;;;1.83;1.38;;;17.90;48.20;;;;;;4944464;28;20047;-50
2022/01/18 07:23:24;;;;;;;5.07;1.02;;;17.90;48.30;;;;;;4948051;28;20043;-45
2022/01/18 07:25:52;;;;;;;1.80;1.30;;;17.90;48.30;;;;;;4949532;28;20043;-47
2022/01/18 07:28:20;;;;;;;2.15;1.30;;;17.90;48.30;;;;;;4948415;28;20090;-44
2022/01/18 07:30:48;;;;;;;2.47;1.20;;;17.90;48.40;;;;;;4950944;28;20520;-43
2022/01/18 07:33:17;;;;;;;1.67;1.42;;;17.80;48.30;;;;;;4951113;28;20055;-48
2022/01/18 07:35:45;;;;;;;2.95;1.27;;;17.90;48.40;;;;;;4947508;28;20483;-50
2022/01/18 07:38:15;;;;;;;2.67;1.25;;;17.90;48.50;;;;;;4949259;28;20448;-48
2022/01/18 07:40:45;;;;;;;6.68;2.45;;;17.90;48.50;;;;;;4944131;28;20047;-45
2022/01/18 07:43:16;;;;;;;3.85;0.98;;;17.80;48.60;;;;;;4944438;28;20747;-45
2022/01/18 07:45:44;;;;;;;6.78;1.70;;;17.80;48.60;;;;;;4951283;29;20043;-46
2022/01/18 07:48:11;;;;;;;3.83;1.80;;;17.80;49.20;;;;;;4947696;28;20050;-45
2022/01/18 07:50:39;;;;;;;1.00;0.75;;;17.90;48.60;;;;;;4948257;28;20062;-49
2022/01/18 07:53:07;;;;;;;2.75;1.80;;;17.80;48.60;;;;;;4946402;28;20150;-44
2022/01/18 07:55:34;;;;;;;4.68;1.55;;;17.90;48.60;;;;;;4949362;28;20042;-47
2022/01/18 07:58:03;;;;;;;3.90;2.85;;;17.80;48.50;;;;;;4948892;28;20043;-43
2022/01/18 08:00:30;;;;;;;3.33;1.10;;;17.90;48.60;;;;;;4949786;29;20039;-47
2022/01/18 08:02:57;;;;;;;1.83;1.20;;;17.80;48.50;;;;;;4945240;28;20943;-50
2022/01/18 08:05:24;;;;;;;3.08;1.08;;;17.80;48.50;;;;;;4946203;28;20042;-49
2022/01/18 08:07:52;;;;;;;4.22;2.53;;;17.90;48.70;;;;;;4946973;28;20059;-45
2022/01/18 08:10:19;;;;;;;3.67;1.73;;;17.80;48.50;;;;;;4945389;28;20107;-48
2022/01/18 08:12:47;;;;;;;7.53;1.98;;;17.80;48.50;;;;;;4950683;29;20047;-46
2022/01/18 08:15:19;;;;;;;3.90;1.65;;;17.90;48.90;;;;;;4948891;28;20046;-46
2022/01/18 08:17:48;;;;;;;7.85;3.30;;;17.90;49.50;;;;;;4948965;28;20043;-42
2022/01/18 08:20:18;;;;;;;5.00;1.52;;;17.90;49.80;;;;;;4946955;28;20558;-44
2022/01/18 08:22:46;;;;;;;6.20;1.85;;;17.90;50.00;;;;;;4948620;28;20047;-41
2022/01/18 08:25:15;;;;;;;8.77;2.38;;;17.90;50.50;;;;;;4942354;28;20460;-40
2022/01/18 08:27:45;;;;;;;3.80;1.38;;;17.80;50.60;;;;;;4946194;29;20551;-46
2022/01/18 08:30:16;;;;;;;5.00;2.10;;;17.90;50.70;;;;;;4949749;28;20043;-44
2022/01/18 08:32:44;;;;;;;6.00;1.65;;;17.90;50.60;;;;;;4948388;28;20047;-42
2022/01/18 08:35:12;;;;;;;5.80;1.50;;;17.90;50.60;;;;;;4947817;28;20043;-43
2022/01/18 08:37:39;;;;;;;2.17;1.40;;;17.90;50.60;;;;;;4931322;29;20116;-41
2022/01/18 08:40:08;;;;;;;3.55;2.53;;;17.90;50.40;;;;;;4948915;28;20160;-41
2022/01/18 08:42:35;;;;;;;13.02;2.28;;;17.90;50.40;;;;;;4950549;29;20051;-42
2022/01/18 08:45:03;;;;;;;6.65;2.03;;;17.90;50.30;;;;;;4946763;28;20043;-45
2022/01/18 08:47:32;;;;;;;3.78;1.95;;;17.80;50.20;;;;;;4948849;28;20870;-42
2022/01/18 08:49:59;;;;;;;3.58;2.10;;;17.90;50.10;;;;;;4948356;28;20049;-41
2022/01/18 08:52:27;;;;;;;2.05;0.93;;;17.80;50.00;;;;;;4948526;28;20066;-41
2022/01/18 08:54:54;;;;;;;4.15;1.38;;;17.80;49.90;;;;;;4949245;28;20043;-41
2022/01/18 08:57:21;;;;;;;4.93;2.05;;;17.80;49.80;;;;;;4949821;28;20055;-41
2022/01/18 08:59:49;;;;;;;7.47;1.95;;;17.80;49.80;;;;;;4948365;28;20035;-42
2022/01/18 09:02:17;;;;;;;4.47;2.65;;;17.80;49.70;;;;;;4946470;28;20047;-41
2022/01/18 09:04:46;;;;;;;7.32;1.73;;;17.80;49.60;;;;;;4931435;29;20036;-43
2022/01/18 09:07:16;;;;;;;2.38;0.93;;;17.80;49.60;;;;;;4948006;28;20064;-44
2022/01/18 09:09:46;;;;;;;2.67;1.88;;;17.80;49.50;;;;;;4946420;29;20494;-41
2022/01/18 09:12:15;;;;;;;5.00;1.40;;;17.80;49.40;;;;;;4945597;28;20050;-42
2022/01/18 09:14:42;;;;;;;3.28;1.38;;;17.80;49.40;;;;;;4948376;28;20051;-41
2022/01/18 09:17:09;;;;;;;8.13;1.67;;;17.80;49.30;;;;;;4947837;28;20054;-43
2022/01/18 09:19:37;;;;;;;5.68;1.13;;;17.80;49.30;;;;;;4930932;29;20895;-42
2022/01/18 09:22:06;;;;;;;5.20;1.02;;;17.80;49.30;;;;;;4948254;28;20046;-45
2022/01/18 09:24:33;;;;;;;2.42;1.17;;;17.80;49.30;;;;;;4949945;29;20476;-43
2022/01/18 09:27:00;;;;;;;2.70;1.52;;;17.80;49.20;;;;;;4947527;28;20054;-42
2022/01/18 09:29:28;;;;;;;1.88;1.60;;;17.80;49.20;;;;;;4947473;28;20071;-42
2022/01/18 09:31:55;;;;;;;5.85;1.35;;;17.80;49.10;;;;;;4930494;29;20050;-42
2022/01/18 09:34:23;;;;;;;4.53;1.77;;;17.80;49.10;;;;;;4948033;28;20043;-42
2022/01/18 09:36:50;;;;;;;2.47;1.17;;;17.80;49.00;;;;;;4948681;28;20043;-41
2022/01/18 09:39:18;;;;;;;7.10;1.23;;;17.80;48.90;;;;;;4948839;28;20074;-42
2022/01/18 09:41:50;;;;;;;3.78;1.83;;;17.80;48.90;;;;;;4946965;28;20043;-43
2022/01/18 09:44:18;;;;;;;2.80;1.52;;;17.80;48.80;;;;;;4945400;28;20083;-43
2022/01/18 09:46:46;;;;;;;2.40;1.70;;;17.80;48.80;;;;;;4944188;28;20146;-41
2022/01/18 09:49:13;;;;;;;5.53;1.63;;;17.80;48.70;;;;;;4947653;28;20057;-42
2022/01/18 09:51:40;;;;;;;4.50;2.25;;;17.80;48.70;;;;;;4949471;29;20050;-46
2022/01/18 09:54:07;;;;;;;6.28;2.22;;;17.80;48.70;;;;;;4947279;28;20133;-44
2022/01/18 09:56:36;;;;;;;5.85;1.63;;;17.80;48.60;;;;;;4947053;28;20073;-41
2022/01/18 09:59:04;;;;;;;3.03;1.33;;;17.80;48.60;;;;;;4947169;28;20472;-48
2022/01/18 10:01:32;;;;;;;2.85;1.10;;;17.80;48.50;;;;;;4947401;28;20043;-42
2022/01/18 10:04:16;;;;;;;5.57;2.03;;;17.80;48.50;;;;;;4947602;28;20103;-43
2022/01/18 10:06:46;;;;;;;5.15;1.70;;;17.90;48.40;;;;;;4945603;28;20424;-42
2022/01/18 10:09:14;;;;;;;4.38;1.52;;;17.80;48.50;;;;;;4947867;28;20091;-41
2022/01/18 10:12:17;;;;;;;3.20;1.10;;;17.90;48.40;;;;;;4946968;28;20504;-42
2022/01/18 10:14:54;;;;;;;2.03;0.95;;;17.90;48.30;;;;;;4939038;28;20126;-43
2022/01/18 10:17:31;;;;;;;2.50;1.15;;;17.90;48.30;;;;;;4947443;28;20043;-46
2022/01/18 10:20:04;;;;;;;2.35;1.27;;;17.90;48.20;;;;;;4946133;28;20132;-45
2022/01/18 10:22:40;;;;;;;4.68;1.83;;;17.90;48.20;;;;;;4946958;28;20044;-42
2022/01/18 10:25:15;;;;;;;1.75;1.52;;;17.90;48.20;;;;;;4946063;28;20078;-44
2022/01/18 10:27:42;;;;;;;2.65;1.27;;;17.90;48.10;;;;;;4948097;29;20526;-42
2022/01/18 10:30:19;;;;;;;3.80;0.88;;;17.90;48.10;;;;;;4946218;28;20043;-45
2022/01/18 10:33:07;;;;;;;2.53;1.35;;;17.90;48.00;;;;;;4946925;28;20537;-41
2022/01/18 10:35:34;;;;;;;4.18;1.55;;;18.00;47.90;;;;;;4946797;28;20043;-44
2022/01/18 10:38:02;;;;;;;2.15;1.02;;;18.00;47.90;;;;;;4946494;28;20043;-44
2022/01/18 10:40:29;;;;;;;4.32;1.13;;;18.00;47.80;;;;;;4947127;28;20471;-41
2022/01/18 10:43:03;;;;;;;1.58;0.88;;;18.00;47.80;;;;;;4946526;28;20055;-44
2022/01/18 10:45:35;;;;;;;2.58;1.77;;;18.00;47.80;;;;;;4948546;29;20043;-47
2022/01/18 10:48:04;;;;;;;3.55;1.48;;;18.10;47.80;;;;;;4946601;28;20051;-42
2022/01/18 10:50:33;;;;;;;1.27;0.68;;;18.10;47.80;;;;;;4943866;28;20057;-41
2022/01/18 10:53:12;;;;;;;2.85;0.63;;;18.10;48.20;;;;;;4946502;28;20045;-44
2022/01/18 10:55:40;;;;;;;2.90;1.25;;;18.10;47.60;;;;;;4946588;28;20043;-44
2022/01/18 10:58:11;;;;;;;2.47;0.98;;;18.20;47.60;;;;;;4947133;28;20496;-41
2022/01/18 11:00:40;;;;;;;2.80;1.45;;;18.20;47.50;;;;;;4953963;28;20051;-41
2022/01/18 11:03:09;;;;;;;3.05;1.25;;;18.20;47.40;;;;;;4950443;28;20044;-41
2022/01/18 11:05:39;;;;;;;3.85;1.25;;;18.20;47.30;;;;;;4950417;28;20054;-42
2022/01/18 11:08:07;;;;;;;2.50;0.90;;;18.30;47.30;;;;;;4950099;28;20051;-45
2022/01/18 11:10:36;;;;;;;1.08;1.00;;;18.30;47.20;;;;;;4950314;28;20419;-45
2022/01/18 11:13:07;;;;;;;3.85;1.83;;;18.30;47.10;;;;;;4949945;28;20126;-40
2022/01/18 11:15:37;;;;;;;4.63;0.85;;;18.40;47.10;;;;;;4952322;28;20075;-44
2022/01/18 11:18:14;;;;;;;3.05;0.98;;;18.40;47.00;;;;;;4950117;28;20050;-43
2022/01/18 11:20:44;;;;;;;1.13;0.70;;;18.40;46.90;;;;;;4950167;28;20047;-41
2022/01/18 11:23:12;;;;;;;2.15;1.15;;;18.50;46.90;;;;;;4950281;28;20039;-46
2022/01/18 11:25:40;;;;;;;2.65;0.90;;;18.50;46.80;;;;;;4950212;28;20751;-44
2022/01/18 11:28:09;;;;;;;3.25;1.20;;;18.50;46.70;;;;;;4949560;28;20073;-44
2022/01/18 11:30:38;;;;;;;4.45;1.13;;;18.50;46.70;;;;;;4952133;29;20059;-40
2022/01/18 11:33:11;;;;;;;2.85;1.05;;;18.60;46.70;;;;;;4932796;29;20055;-41
2022/01/18 11:35:46;;;;;;;5.65;1.65;;;18.60;46.50;;;;;;4948062;28;20106;-40
2022/01/18 11:38:23;;;;;;;3.38;0.98;;;18.70;46.50;;;;;;4948609;28;20054;-45
2022/01/18 11:40:53;;;;;;;2.35;0.50;;;18.70;46.50;;;;;;4949594;28;20035;-40
2022/01/18 11:43:35;;;;;;;3.85;0.65;;;18.70;46.40;;;;;;4949059;28;20035;-41
2022/01/18 11:46:20;;;;;;;2.92;0.77;;;18.70;46.20;;;;;;4945889;28;20058;-42
2022/01/18 11:48:50;;;;;;;3.38;0.60;;;18.80;46.20;;;;;;4950555;29;20875;-42
2022/01/18 11:51:19;;;;;;;1.48;0.73;;;18.80;46.20;;;;;;4947562;28;20043;-42
2022/01/18 11:53:55;;;;;;;2.67;0.65;;;18.80;46.10;;;;;;4949513;28;20047;-42
2022/01/18 11:56:34;;;;;;;1.95;0.70;;;18.90;46.00;;;;;;4948542;28;20043;-41
2022/01/18 11:59:18;;;;;;;0.52;0.50;;;18.90;45.90;;;;;;4949543;28;20035;-40
2022/01/18 12:01:50;;;;;;;2.85;0.60;;;19.00;45.80;;;;;;4947875;28;20040;-45
2022/01/18 12:04:54;;;;;;;1.52;0.52;;;18.90;45.70;;;;;;4946519;28;20527;-40
2022/01/18 12:07:51;;;;;;;1.42;0.50;;;19.00;45.60;;;;;;4945813;28;20046;-42
2022/01/18 12:10:51;;;;;;;1.33;0.43;;;19.00;45.50;;;;;;4941647;28;20035;-41
2022/01/18 12:13:32;;;;;;;1.10;0.28;;;19.10;45.60;;;;;;4945438;28;20039;-42
2022/01/18 12:16:02;;;;;;;1.73;0.60;;;19.10;45.50;;;;;;4949302;28;20047;-42
2022/01/18 12:18:30;;;;;;;1.00;0.40;;;19.10;45.50;;;;;;4951183;29;20431;-43
2022/01/18 12:20:59;;;;;;;1.75;0.43;;;19.10;45.40;;;;;;4949130;28;20050;-42
2022/01/18 12:23:29;;;;;;;3.22;0.73;;;19.20;45.40;;;;;;4949181;28;20051;-40
2022/01/18 12:26:00;;;;;;;0.77;0.50;;;19.20;45.30;;;;;;4934102;28;20043;-43
2022/01/18 12:28:48;;;;;;;0.93;0.88;;;19.20;45.20;;;;;;4948724;28;20043;-41
2022/01/18 12:34:38;;;;;;;4.35;0.30;;;19.30;45.10;;;;;;4946701;28;20055;-42
2022/01/18 12:37:44;;;;;;;0.77;0.20;;;19.30;45.10;;;;;;4949069;28;20131;-41
2022/01/18 12:40:31;;;;;;;1.60;0.30;;;19.40;45.60;;;;;;4948826;28;20098;-44
2022/01/18 12:45:56;;;;;;;1.65;0.35;;;19.40;45.00;;;;;;4950153;28;20043;-40
2022/01/18 12:48:24;;;;;;;0.93;0.32;;;19.40;45.00;;;;;;4948520;29;20047;-43
2022/01/18 12:50:57;;;;;;;3.25;0.70;;;19.40;44.90;;;;;;4928353;29;20036;-41
2022/01/18 12:53:30;;;;;;;0.88;0.52;;;19.50;44.90;;;;;;4948004;28;20039;-44
2022/01/18 12:55:59;;;;;;;1.73;0.82;;;19.50;44.80;;;;;;4947834;28;20071;-40
2022/01/18 12:58:30;;;;;;;1.20;0.30;;;19.50;44.80;;;;;;4948475;28;20044;-44
2022/01/18 13:00:59;;;;;;;1.42;0.10;;;19.60;44.70;;;;;;4948879;28;20055;-41
2022/01/18 13:03:29;;;;;;;0.30;0.20;;;19.60;44.70;;;;;;4948528;28;20039;-41
2022/01/18 13:05:58;;;;;;;1.25;0.60;;;19.70;44.70;;;;;;4947689;28;20057;-41
2022/01/18 13:08:29;;;;;;;2.55;0.88;;;19.60;44.60;;;;;;4947274;28;20160;-41
2022/01/18 13:10:56;;;;;;;0.85;0.10;;;19.70;44.60;;;;;;4947707;28;20134;-41
2022/01/18 13:13:33;;;;;;;2.40;0.30;;;19.70;44.50;;;;;;4945818;28;20142;-40
2022/01/18 13:27:13;;;;;;;0.20;0.20;;;19.80;44.30;;;;;;4933746;28;20086;-42
2022/01/18 13:29:43;;;;;;;0.10;0.10;;;19.80;44.30;;;;;;4947790;28;20063;-44
2022/01/18 13:32:16;;;;;;;0.40;0.20;;;19.80;44.20;;;;;;4947863;28;20039;-41
2022/01/18 13:34:45;;;;;;;0.95;0.10;;;19.80;44.10;;;;;;4947904;28;20043;-44
2022/01/18 13:37:14;;;;;;;2.22;0.40;;;19.80;44.10;;;;;;4947599;28;20039;-42
2022/01/18 13:39:46;;;;;;;1.27;0.35;;;19.90;44.10;;;;;;4949054;29;20052;-44
2022/01/18 13:42:14;;;;;;;0.90;0.73;;;19.90;44.00;;;;;;4948008;28;20047;-41
2022/01/18 13:45:07;;;;;;;0.13;0.10;;;19.90;43.90;;;;;;4930452;29;20058;-41
2022/01/18 13:47:39;;;;;;;1.77;0.28;;;20.00;43.90;;;;;;4944057;28;20142;-41
2022/01/18 13:50:07;;;;;;;0.60;0.28;;;20.00;44.00;;;;;;4947453;28;20705;-43
2022/01/18 13:52:35;;;;;;;0.40;0.15;;;20.00;44.50;;;;;;4944498;28;20051;-43
2022/01/18 13:55:02;;;;;;;0.30;0.20;;;20.00;43.80;;;;;;4947216;28;20231;-47
2022/01/18 13:57:29;;;;;;;0.82;0.20;;;20.10;43.80;;;;;;4947083;29;20043;-41
2022/01/18 13:59:58;;;;;;;0.65;0.28;;;20.10;43.80;;;;;;4947312;28;20055;-43
2022/01/18 14:02:26;;;;;;;0.60;0.60;;;20.10;44.10;;;;;;4947077;28;20086;-42
2022/01/18 14:05:08;;;;;;;0.30;0.20;;;20.10;43.70;;;;;;4947180;28;20058;-44
2022/01/18 14:07:35;;;;;;;0.73;0.30;;;20.20;43.60;;;;;;4946670;28;20564;-42